Flight Track Log - Related Links

Times and Time Zones

All times are in EDT time to prevent confusion due to time zone crossing. See the AAL1404 flight status page for this flight to view local times or setup timezone preferences in your user account.


Time Position Orientation Groundspeed Altitude Reporting Facility
EDT Latitude Longitude Course Direction KTS MPH feet Rate Location/Type
Sat 07:56:45 PM 25.7992 -80.3183 336° Northwest 177 204 1,000  Level Miami Center
Sat 07:57:22 PM 25.8111 -80.3464 295° West 180 207 2,000 1,553 Climbing Miami Center
Sat 07:58:10 PM 25.8222 -80.4022 282° West 242 278 3,200 1,982 Climbing Miami Center
Sat 07:59:00 PM 26.1202 -80.3914 340° North  Level FlightAware Approximate
Sat 07:59:11 PM 25.8906 -80.4250 343° North 278 320 5,600  Level Miami Center
Sat 08:00:00 PM 26.2327 -80.4247 336° Northwest  Level FlightAware Approximate
Sat 08:00:22 PM 25.9847 -80.4208 North 318 366 8,400  Level Miami Center
Sat 08:01:00 PM 26.3403 -80.4785 336° Northwest  Level FlightAware Approximate
Sat 08:01:22 PM 26.0683 -80.4233 358° North 310 357 10,800  Level Miami Center
Sat 08:02:00 PM 26.4479 -80.5323 336° Northwest  Level FlightAware Approximate
Sat 08:02:22 PM 26.1622 -80.4261 358° North 310 357 12,900  Level Miami Center
Sat 08:03:22 PM 26.2600 -80.4406 352° North 328 377 16,200 2,950 Climbing Miami Center
Sat 08:04:22 PM 26.3431 -80.4569 350° North 341 392 18,800 1,950 Climbing Miami Center
Sat 08:05:22 PM 26.4636 -80.4792 351° North 372 428 20,100 1,500 Climbing Miami Center
Sat 08:06:22 PM 26.5656 -80.4986 350° North 404 465 21,800 1,950 Climbing Miami Center
Sat 08:07:22 PM 26.6919 -80.5350 346° North 425 489 24,000 2,200 Climbing Miami Center
Sat 08:08:22 PM 26.8061 -80.5689 345° North 425 489 26,200 2,350 Climbing Miami Center
Sat 08:09:22 PM 26.9200 -80.5981 347° North 425 489 28,700 2,050 Climbing Miami Center
Sat 08:10:22 PM 27.0281 -80.6272 346° North 412 474 30,300 1,300 Climbing Miami Center
Sat 08:11:22 PM 27.1378 -80.6633 344° North 406 467 31,300 1,150 Climbing Miami Center
Sat 08:12:22 PM 27.2447 -80.7161 336° Northwest 413 475 32,600 1,400 Climbing Miami Center
Sat 08:13:22 PM 27.3542 -80.7689 337° Northwest 420 483 34,100 1,250 Climbing Miami Center
Sat 08:14:22 PM 27.4592 -80.8169 338° Northwest 420 483 35,100 950 Climbing Miami Center
Sat 08:15:22 PM 27.5753 -80.8467 347° North 420 483 36,000 650 Climbing Miami Center
Sat 08:16:22 PM 27.6956 -80.8719 349° North 426 490 36,400 500 Climbing Miami Center
Sat 08:17:22 PM 27.8222 -80.9022 348° North 441 507 37,000 250 Climbing Miami Center
Sat 08:18:22 PM 27.9486 -80.9325 348° North 447 514 36,900  Descending Miami Center
Sat 08:19:22 PM 28.0750 -80.9606 349° North 458 527 37,000 50 Climbing Miami Center
Sat 08:20:22 PM 28.2036 -80.9911 348° North 463 533 37,000  Level Miami Center
Sat 08:22:27 PM 28.4708 -81.0578 348° North 476 548 37,000  Level Jacksonville Center
Sat 08:23:27 PM 28.5942 -81.0861 349° North 465 535 37,000  Level Jacksonville Center
Sat 08:24:27 PM 28.7219 -81.1147 349° North 465 535 37,000  Level Jacksonville Center
Sat 08:25:27 PM 28.8497 -81.1481 347° North 460 529 37,000  Level Jacksonville Center
Sat 08:26:27 PM 28.9753 -81.1789 348° North 460 529 37,000 -50 Level Jacksonville Center
Sat 08:27:27 PM 29.1031 -81.2075 349° North 460 529 36,900 -50 Descending Jacksonville Center
Sat 08:28:27 PM 29.2286 -81.2389 348° North 455 524 36,900 50 Level Jacksonville Center
Sat 08:29:28 PM 29.3522 -81.2700 348° North 456 525 37,000 50 Climbing Jacksonville Center
Sat 08:30:27 PM 29.4778 -81.2992 349° North 455 524 37,000  Level Jacksonville Center
Sat 08:31:27 PM 29.5908 -81.3283 347° North 450 518 37,000  Level Jacksonville Center
Sat 08:32:28 PM 29.7167 -81.3597 348° North 450 518 37,000  Level Jacksonville Center
Sat 08:33:27 PM 29.8422 -81.3864 350° North 450 518 37,000  Level Jacksonville Center
Sat 08:34:27 PM 29.9700 -81.4203 347° North 450 518 37,000  Level Jacksonville Center
Sat 08:35:27 PM 30.0933 -81.4497 348° North 450 518 37,000  Level Jacksonville Center
Sat 08:36:27 PM 30.2192 -81.4814 348° North 450 518 37,000  Level Jacksonville Center
Sat 08:37:27 PM 30.3425 -81.5061 350° North 450 518 37,000  Level Jacksonville Center
Sat 08:38:27 PM 30.4719 -81.4994 North 450 518 37,000  Level Jacksonville Center
Sat 08:39:27 PM 30.6011 -81.4903 North 450 518 37,000  Level Jacksonville Center
Sat 08:40:27 PM 30.7283 -81.4789 North 455 524 37,000  Level Jacksonville Center
Sat 08:41:28 PM 30.8558 -81.4697 North 455 524 37,000  Level Jacksonville Center
Sat 08:42:27 PM 30.9831 -81.4606 North 461 531 37,000  Level Jacksonville Center
Sat 08:43:27 PM 31.1247 -81.4486 North 461 531 37,000  Level Jacksonville Center
Sat 08:44:27 PM 31.2561 -81.4369 North 461 531 37,000  Level Jacksonville Center
Sat 08:45:27 PM 31.3811 -81.4008 14° North 461 531 37,000  Level Jacksonville Center
Sat 08:46:27 PM 31.5103 -81.3694 12° North 470 541 37,000  Level Jacksonville Center
Sat 08:47:27 PM 31.6267 -81.3383 13° North 470 541 37,000  Level Jacksonville Center
Sat 08:48:27 PM 31.7661 -81.2994 13° North 470 541 37,000 -50 Level Jacksonville Center
Sat 08:49:27 PM 31.8972 -81.2653 12° North 470 541 36,900 -50 Descending Jacksonville Center
Sat 08:50:27 PM 32.0261 -81.2311 13° North 470 541 36,900 50 Level Jacksonville Center
Sat 08:51:27 PM 32.1508 -81.1897 16° North 470 541 37,000 50 Climbing Jacksonville Center
Sat 08:52:27 PM 32.2603 -81.0992 35° Northeast 470 541 37,000  Level Jacksonville Center
Sat 08:53:27 PM 32.3717 -81.0036 36° Northeast 482 555 37,000  Level Jacksonville Center
Sat 08:54:27 PM 32.4767 -80.9053 38° Northeast 482 555 37,000  Level Jacksonville Center
Sat 08:55:27 PM 32.5836 -80.8117 36° Northeast 476 548 37,000  Level Jacksonville Center
Sat 08:56:27 PM 32.6928 -80.7131 37° Northeast 482 555 37,000 -50 Level Jacksonville Center
Sat 08:57:27 PM 32.7975 -80.6189 37° Northeast 477 549 36,900  Descending Jacksonville Center
Sat 08:58:28 PM 32.9083 -80.5197 37° Northeast 477 549 37,000 50 Climbing Jacksonville Center
Sat 08:59:27 PM 33.0150 -80.4253 37° Northeast 477 549 37,000  Level Jacksonville Center
Sat 09:00:27 PM 33.1156 -80.3306 38° Northeast 497 572 37,000  Level Jacksonville Center
Sat 09:01:27 PM 33.2303 -80.2356 35° Northeast 490 564 37,000  Level Jacksonville Center
Sat 09:02:27 PM 33.3344 -80.1306 40° Northeast 495 570 37,000  Level Jacksonville Center
Sat 09:03:27 PM 33.4431 -80.0300 38° Northeast 495 570 37,000  Level Jacksonville Center
Sat 09:04:27 PM 33.5533 -79.9317 37° Northeast 495 570 37,000  Level Jacksonville Center
Sat 09:05:28 PM 33.6614 -79.8258 39° Northeast 500 575 37,000  Level Jacksonville Center
Sat 09:06:27 PM 33.7736 -79.7244 37° Northeast 500 575 37,000  Level Jacksonville Center
Sat 09:07:27 PM 33.8836 -79.6206 38° Northeast 500 575 37,000 -50 Level Jacksonville Center
Sat 09:08:27 PM 33.9939 -79.5211 37° Northeast 500 575 36,900  Descending Jacksonville Center
Sat 09:09:58 PM 34.1539 -79.3711 38° Northeast 481 554 37,000 39 Climbing Washington Center
Sat 09:10:59 PM 34.2636 -79.2656 38° Northeast 486 559 37,000  Level Washington Center
Sat 09:12:00 PM 34.3889 -79.1933 25° Northeast 492 566 37,000  Level Washington Center
Sat 09:12:58 PM 34.5119 -79.1206 26° Northeast 492 566 37,000  Level Washington Center
Sat 09:13:58 PM 34.6372 -79.0503 25° Northeast 492 566 37,000  Level Washington Center
Sat 09:15:00 PM 34.7603 -78.9794 25° Northeast 487 560 37,000  Level Washington Center
Sat 09:15:58 PM 34.8853 -78.9064 26° Northeast 487 560 37,000  Level Washington Center
Sat 09:16:59 PM 35.0125 -78.8328 25° Northeast 493 567 37,000  Level Washington Center
Sat 09:17:59 PM 35.1397 -78.7592 25° Northeast 493 567 37,000  Level Washington Center
Sat 09:18:59 PM 35.2647 -78.6853 26° Northeast 493 567 37,000  Level Washington Center
Sat 09:20:00 PM 35.3964 -78.6039 27° Northeast 515 593 37,000  Level Washington Center
Sat 09:21:00 PM 35.5297 -78.5244 26° Northeast 510 587 37,000  Level Washington Center
Sat 09:21:58 PM 35.6650 -78.4478 25° Northeast 510 587 37,000  Level Washington Center
Sat 09:22:58 PM 35.7878 -78.3728 26° Northeast 510 587 37,000 -198 Level Washington Center
Sat 09:23:59 PM 35.9147 -78.2978 26° Northeast 504 580 36,600 -1,770 Descending Washington Center
Sat 09:25:00 PM 36.0417 -78.2225 26° Northeast 498 573 33,400 -3,277 Descending Washington Center
Sat 09:25:58 PM 36.1728 -78.1419 26° Northeast 498 573 30,100 -3,076 Descending Washington Center
Sat 09:26:59 PM 36.3039 -78.0611 26° Northeast 503 579 27,300 -1,525 Descending Washington Center
Sat 09:28:00 PM 36.4008 -78.0047 25° Northeast 503 579 27,000 -149 Descending Washington Center
Sat 09:29:00 PM 36.5256 -77.9258 27° Northeast 472 543 27,000  Level Washington Center
Sat 09:29:58 PM 36.6544 -77.8469 26° Northeast 460 529 27,000  Level Washington Center
Sat 09:30:58 PM 36.7764 -77.7933 19° North 460 529 27,000  Level Washington Center
Sat 09:31:59 PM 36.9003 -77.7425 18° North 460 529 27,000  Level Washington Center
Sat 09:33:00 PM 37.0264 -77.6939 17° North 460 529 27,000  Level Washington Center
Sat 09:34:00 PM 37.1506 -77.6400 19° North 467 537 27,000  Level Washington Center
Sat 09:34:58 PM 37.2786 -77.5886 18° North 467 537 27,000 -102 Level Washington Center
Sat 09:35:58 PM 37.4044 -77.5369 18° North 467 537 26,800 -1,388 Descending Washington Center
Sat 09:36:59 PM 37.5264 -77.4825 19° North 467 537 24,200 -2,430 Descending Washington Center
Sat 09:37:59 PM 37.6481 -77.4331 18° North 467 537 21,900 -2,118 Descending Washington Center
Sat 09:38:58 PM 37.7511 -77.3883 19° North 455 524 20,000 -2,132 Descending Washington Center
Sat 09:40:00 PM 37.8622 -77.3408 19° North 435 501 17,600 -2,350 Descending Washington Center
Sat 09:40:58 PM 37.9589 -77.2983 19° North 419 482 15,300 -2,269 Descending Washington Center
Sat 09:41:59 PM 38.0742 -77.2536 17° North 399 459 13,100 -2,132 Descending Washington Center
Sat 09:42:59 PM 38.1747 -77.2108 18° North 384 442 11,000 -1,525 Descending Washington Center
Sat 09:44:01 PM 38.2756 -77.1600 22° Northeast 364 419 10,000 -504 Descending Washington Center
Sat 09:44:58 PM 38.3550 -77.1458 North 338 389 10,000  Level Washington Center
Sat 09:45:59 PM 38.4469 -77.1267 North 327 376 10,000  Level Washington Center
Sat 09:47:00 PM 38.5347 -77.1072 10° North 322 371 10,000  Level Washington Center
Sat 09:47:58 PM 38.6353 -77.0853 10° North 322 371 10,000  Level Washington Center
Sat 09:48:50 PM 38.7167 -77.0667 10° North 308 354 10,000 -736 Level Potomac TRACON
Sat 09:49:44 PM 38.7833 -77.0833 349° North 271 312 8,700 -1,947 Descending Potomac TRACON
Sat 09:50:44 PM 38.8333 -77.1333 322° Northwest 266 306 6,300 -2,000 Descending Potomac TRACON
Sat 09:51:50 PM 38.8833 -77.1833 322° Northwest 214 246 4,500 -1,636 Descending Potomac TRACON

Login

Don't have an account? Register now (free) for customized features, flight alerts, and more!